createdAt,value
2023-07-18T00:02:15.216Z,3.47
2023-07-18T00:04:42.084Z,5.23
2023-07-18T00:07:08.889Z,4.17
2023-07-18T00:09:38.570Z,7.87
2023-07-18T00:12:06.972Z,3.73
2023-07-18T00:14:33.985Z,3.90
2023-07-18T00:17:01.021Z,5.30
2023-07-18T00:19:28.520Z,3.87
2023-07-18T00:21:56.233Z,4.37
2023-07-18T00:24:23.395Z,4.87
2023-07-18T00:26:50.367Z,3.97
2023-07-18T00:29:17.297Z,6.37
2023-07-18T00:31:44.207Z,7.00
2023-07-18T00:34:12.038Z,6.50
2023-07-18T00:36:38.825Z,4.07
2023-07-18T00:39:05.559Z,5.30
2023-07-18T00:41:32.241Z,8.73
2023-07-18T00:43:59.110Z,6.07
2023-07-18T00:46:32.478Z,6.67
2023-07-18T00:48:59.482Z,8.70
2023-07-18T00:51:26.856Z,6.77
2023-07-18T00:53:54.334Z,6.70
2023-07-18T00:56:21.359Z,6.87
2023-07-18T00:58:48.364Z,8.43
2023-07-18T01:01:15.323Z,7.00
2023-07-18T01:03:42.634Z,5.20
2023-07-18T01:06:10.063Z,8.67
2023-07-18T01:08:37.025Z,7.70
2023-07-18T01:11:05.967Z,5.77
2023-07-18T01:13:32.711Z,7.90
2023-07-18T01:15:59.552Z,5.93
2023-07-18T01:18:26.252Z,7.43
2023-07-18T01:20:55.104Z,8.10
2023-07-18T01:23:22.561Z,4.83
2023-07-18T01:25:49.577Z,6.90
2023-07-18T01:28:16.641Z,8.50
2023-07-18T01:30:43.536Z,5.27
2023-07-18T01:33:10.354Z,6.80
2023-07-18T01:35:37.179Z,6.20
2023-07-18T01:38:04.574Z,10.30
2023-07-18T01:40:31.415Z,5.77
2023-07-18T01:42:58.967Z,6.97
2023-07-18T01:45:29.206Z,4.17
2023-07-18T01:47:57.732Z,7.63
2023-07-18T01:50:24.923Z,7.13
2023-07-18T01:52:51.787Z,6.40
2023-07-18T01:55:18.887Z,7.23
2023-07-18T01:57:48.490Z,6.23
2023-07-18T02:00:21.423Z,6.90
2023-07-18T02:02:54.664Z,8.07
2023-07-18T02:05:27.060Z,5.17
2023-07-18T02:07:54.091Z,8.93
2023-07-18T02:10:22.205Z,8.37
2023-07-18T02:12:50.565Z,10.10
2023-07-18T02:15:17.833Z,9.50
2023-07-18T02:17:45.357Z,7.30
2023-07-18T02:20:18.199Z,6.63
2023-07-18T02:22:46.396Z,7.40
2023-07-18T02:25:16.494Z,7.87
2023-07-18T02:27:43.522Z,7.27
2023-07-18T02:30:12.873Z,7.90
2023-07-18T02:32:40.622Z,5.07
2023-07-18T02:35:09.027Z,8.13
2023-07-18T02:37:36.083Z,7.33
2023-07-18T02:40:11.211Z,9.60
2023-07-18T02:42:39.163Z,6.50
2023-07-18T02:45:08.127Z,6.80
2023-07-18T02:47:35.281Z,8.53
2023-07-18T02:50:04.275Z,9.17
2023-07-18T02:52:31.090Z,8.73
2023-07-18T02:54:58.066Z,13.53
2023-07-18T02:57:24.866Z,7.23
2023-07-18T02:59:51.621Z,8.93
2023-07-18T03:02:18.566Z,6.27
2023-07-18T03:04:49.013Z,8.10
2023-07-18T03:07:19.005Z,5.80
2023-07-18T03:09:46.324Z,7.67
2023-07-18T03:12:13.494Z,7.60
2023-07-18T03:14:43.485Z,8.13
2023-07-18T03:17:10.406Z,5.70
2023-07-18T03:19:37.577Z,6.43
2023-07-18T03:22:04.451Z,7.23
2023-07-18T03:24:31.493Z,8.77
2023-07-18T03:26:58.212Z,7.57
2023-07-18T03:29:25.140Z,7.83
2023-07-18T03:31:52.230Z,7.37
2023-07-18T03:34:19.020Z,6.03
2023-07-18T03:36:46.299Z,6.33
2023-07-18T03:39:14.775Z,4.23
2023-07-18T03:41:41.632Z,3.70
2023-07-18T03:44:08.775Z,7.60
2023-07-18T03:46:35.683Z,7.43
2023-07-18T03:49:11.685Z,6.87
2023-07-18T03:51:41.342Z,8.20
2023-07-18T03:54:08.065Z,7.10
2023-07-18T03:56:35.323Z,9.13
2023-07-18T03:59:02.073Z,7.67
2023-07-18T04:01:28.850Z,7.93
2023-07-18T04:03:55.748Z,7.00
2023-07-18T04:06:22.971Z,6.03
2023-07-18T04:08:49.705Z,5.60
2023-07-18T04:11:16.669Z,7.67
2023-07-18T04:13:43.660Z,5.50
2023-07-18T04:16:10.548Z,6.57
2023-07-18T04:18:43.241Z,5.57
2023-07-18T04:21:10.219Z,6.83
2023-07-18T04:23:36.967Z,8.30
2023-07-18T04:26:04.815Z,7.23
2023-07-18T04:28:35.977Z,6.70
2023-07-18T04:31:03.214Z,8.17
2023-07-18T04:33:34.720Z,5.07
2023-07-18T04:36:01.822Z,7.03
2023-07-18T04:38:28.635Z,4.63
2023-07-18T04:40:55.498Z,5.53
2023-07-18T04:43:22.332Z,4.87
2023-07-18T04:45:49.272Z,10.43
2023-07-18T04:48:18.071Z,5.43
2023-07-18T04:50:47.856Z,7.40
2023-07-18T04:53:16.373Z,6.77
2023-07-18T04:55:43.257Z,8.03
2023-07-18T04:58:10.069Z,5.57
2023-07-18T05:00:38.011Z,6.83
2023-07-18T05:03:06.783Z,6.53
2023-07-18T05:05:33.916Z,5.20
2023-07-18T05:08:01.155Z,6.03
2023-07-18T05:10:30.497Z,6.77
2023-07-18T05:12:58.288Z,8.60
2023-07-18T05:15:25.261Z,6.37
2023-07-18T05:17:52.222Z,6.60
2023-07-18T05:20:22.233Z,7.00
2023-07-18T05:22:49.175Z,6.40
2023-07-18T05:25:18.817Z,7.10
2023-07-18T05:27:49.156Z,5.90
2023-07-18T05:30:18.277Z,4.33
2023-07-18T05:32:48.625Z,6.67
2023-07-18T05:35:15.561Z,4.77
2023-07-18T05:37:43.662Z,5.73
2023-07-18T05:40:11.648Z,4.93
2023-07-18T05:42:40.074Z,5.57
2023-07-18T05:45:11.284Z,5.13
2023-07-18T05:47:39.918Z,6.43
2023-07-18T05:50:07.789Z,5.73
2023-07-18T05:52:35.511Z,7.37
2023-07-18T05:55:03.549Z,7.53
2023-07-18T05:57:30.632Z,6.10
2023-07-18T06:00:00.589Z,5.57
2023-07-18T06:02:27.889Z,6.33
2023-07-18T06:04:56.999Z,5.07
2023-07-18T06:07:23.894Z,7.47
2023-07-18T06:09:54.172Z,7.67
2023-07-18T06:12:21.023Z,8.33
2023-07-18T06:14:47.844Z,5.30
2023-07-18T06:17:15.116Z,6.47
2023-07-18T06:19:42.233Z,6.50
2023-07-18T06:22:10.669Z,8.87
2023-07-18T06:24:37.511Z,8.83
2023-07-18T06:27:04.995Z,8.57
2023-07-18T06:29:32.668Z,10.13
2023-07-18T06:32:01.284Z,9.13
2023-07-18T06:34:31.919Z,8.83
2023-07-18T06:37:02.448Z,9.03
2023-07-18T06:39:30.551Z,11.43
2023-07-18T06:41:59.013Z,8.60
2023-07-18T06:44:26.057Z,5.63
2023-07-18T06:46:53.718Z,9.27
2023-07-18T06:49:21.900Z,10.43
2023-07-18T06:51:50.728Z,8.53
2023-07-18T06:54:18.735Z,8.03
2023-07-18T06:56:46.222Z,8.87
2023-07-18T06:59:14.750Z,6.23
2023-07-18T07:01:41.631Z,9.57
2023-07-18T07:04:08.803Z,13.60
2023-07-18T07:06:42.466Z,10.10
2023-07-18T07:09:16.509Z,7.50
2023-07-18T07:11:44.411Z,7.23
2023-07-18T07:14:13.485Z,9.33
2023-07-18T07:16:40.755Z,8.80
2023-07-18T07:19:10.201Z,13.13
2023-07-18T07:21:36.932Z,6.23
2023-07-18T07:24:03.884Z,9.97
2023-07-18T07:26:30.875Z,7.07
2023-07-18T07:28:57.783Z,10.70
2023-07-18T07:31:25.293Z,8.23
2023-07-18T07:33:53.669Z,9.50
2023-07-18T07:36:22.005Z,9.97
2023-07-18T07:38:49.459Z,9.30
2023-07-18T07:41:17.142Z,5.63
2023-07-18T07:43:44.214Z,9.27
2023-07-18T07:46:10.946Z,8.00
2023-07-18T07:48:37.835Z,8.73
2023-07-18T07:51:05.438Z,5.43
2023-07-18T07:53:32.311Z,3.43
2023-07-18T07:55:59.174Z,4.32
2023-07-18T07:58:26.111Z,5.50
2023-07-18T08:00:52.888Z,4.40
2023-07-18T08:03:19.574Z,7.78
2023-07-18T08:05:46.397Z,4.38
2023-07-18T08:08:13.265Z,4.28
2023-07-18T08:10:40.518Z,5.65
2023-07-18T08:13:07.352Z,5.40
2023-07-18T08:15:34.082Z,6.10
2023-07-18T08:18:01.311Z,9.65
2023-07-18T08:20:28.884Z,5.72
2023-07-18T08:22:56.115Z,5.30
2023-07-18T08:25:22.904Z,6.00
2023-07-18T08:27:49.655Z,4.88
2023-07-18T08:30:16.568Z,4.30
2023-07-18T08:32:52.917Z,6.18
2023-07-18T08:35:20.904Z,3.00
2023-07-18T08:37:48.886Z,3.13
2023-07-18T08:40:15.692Z,3.95
2023-07-18T08:42:47.238Z,5.25
2023-07-18T08:45:16.094Z,4.72
2023-07-18T08:47:44.907Z,2.08
2023-07-18T08:50:12.264Z,3.15
2023-07-18T08:52:39.351Z,3.97
2023-07-18T08:55:09.871Z,3.50
2023-07-18T08:57:38.070Z,4.13
2023-07-18T09:00:05.834Z,2.00
2023-07-18T09:02:32.799Z,2.92
2023-07-18T09:04:59.492Z,1.88
2023-07-18T09:07:28.470Z,4.03
2023-07-18T09:09:56.562Z,3.78
2023-07-18T09:12:23.734Z,2.55
2023-07-18T09:14:57.214Z,2.28
2023-07-18T09:17:26.594Z,1.55
2023-07-18T09:19:53.914Z,1.27
2023-07-18T09:22:20.844Z,2.05
2023-07-18T09:24:49.340Z,3.25
2023-07-18T09:27:19.104Z,1.98
2023-07-18T09:29:47.107Z,5.30
2023-07-18T09:32:18.599Z,3.67
2023-07-18T09:34:53.902Z,5.32
2023-07-18T09:37:20.969Z,2.38
2023-07-18T09:39:48.964Z,3.25
2023-07-18T09:42:21.263Z,4.65
2023-07-18T09:44:53.590Z,1.23
2023-07-18T09:47:23.710Z,2.58
2023-07-18T09:49:54.325Z,2.03
2023-07-18T09:52:27.777Z,1.48
2023-07-18T09:54:54.760Z,1.50
2023-07-18T09:57:22.864Z,0.75
2023-07-18T09:59:50.351Z,1.33
2023-07-18T10:02:17.555Z,3.22
2023-07-18T10:04:45.687Z,2.85
2023-07-18T10:07:13.056Z,1.73
2023-07-18T10:09:40.646Z,0.93
2023-07-18T10:12:08.400Z,1.83
2023-07-18T10:14:44.333Z,3.05
2023-07-18T10:17:24.917Z,2.80
2023-07-18T10:19:52.057Z,1.48
2023-07-18T10:22:32.241Z,2.13
2023-07-18T10:25:06.817Z,1.73
2023-07-18T10:27:47.358Z,3.20
2023-07-18T10:30:19.484Z,2.80
2023-07-18T10:32:57.721Z,2.08
2023-07-18T10:35:26.920Z,2.53
2023-07-18T10:38:01.618Z,3.03
2023-07-18T10:40:32.919Z,1.63
2023-07-18T10:43:03.070Z,1.73
2023-07-18T10:45:37.168Z,2.67
2023-07-18T10:48:17.785Z,4.47
2023-07-18T10:53:54.526Z,2.65
2023-07-18T10:56:23.901Z,2.53
2023-07-18T10:58:52.326Z,1.38
2023-07-18T11:01:19.813Z,3.00
2023-07-18T11:03:46.963Z,3.92
2023-07-18T11:06:16.020Z,2.08
2023-07-18T11:08:48.088Z,2.15
2023-07-18T11:11:16.635Z,2.13
2023-07-18T11:13:44.643Z,1.75
2023-07-18T11:16:16.390Z,2.42
2023-07-18T11:18:46.906Z,3.45
2023-07-18T11:21:17.613Z,1.98
2023-07-18T11:23:44.970Z,4.05
2023-07-18T11:26:17.408Z,2.35
2023-07-18T11:28:45.889Z,2.22
2023-07-18T11:31:40.844Z,1.48
2023-07-18T11:34:08.810Z,1.60
2023-07-18T11:36:37.788Z,2.03
2023-07-18T11:39:20.638Z,1.83
2023-07-18T11:41:48.461Z,1.83
2023-07-18T11:44:25.503Z,1.08
2023-07-18T11:46:53.906Z,3.58
2023-07-18T11:49:33.996Z,4.13
2023-07-18T11:52:03.344Z,2.72
2023-07-18T11:54:33.548Z,2.38
2023-07-18T11:57:00.303Z,1.83
2023-07-18T11:59:27.047Z,1.70
2023-07-18T12:01:53.850Z,4.53
2023-07-18T12:04:23.654Z,3.70
2023-07-18T12:06:51.141Z,2.47
2023-07-18T12:09:18.087Z,3.78
2023-07-18T12:11:50.634Z,3.88
2023-07-18T12:14:17.350Z,4.97
2023-07-18T12:16:47.754Z,4.03
2023-07-18T12:19:14.762Z,2.33
2023-07-18T12:21:41.474Z,2.85
2023-07-18T12:24:08.420Z,4.05
2023-07-18T12:26:35.218Z,3.72
2023-07-18T12:29:01.995Z,3.40
2023-07-18T12:31:28.885Z,4.15
2023-07-18T12:33:56.109Z,2.05
2023-07-18T12:36:23.209Z,4.30
2023-07-18T12:38:52.859Z,6.93
2023-07-18T12:41:19.891Z,1.58
2023-07-18T12:43:51.318Z,1.85
2023-07-18T12:46:27.643Z,4.70
2023-07-18T12:49:03.617Z,2.55
2023-07-18T12:51:33.481Z,5.10
2023-07-18T12:54:00.708Z,2.88
2023-07-18T12:56:27.570Z,2.17
2023-07-18T12:58:54.572Z,4.30
2023-07-18T13:01:21.738Z,3.08
2023-07-18T13:03:48.573Z,2.78
2023-07-18T13:06:15.360Z,3.65
2023-07-18T13:08:42.234Z,2.00
2023-07-18T13:11:09.220Z,1.70
2023-07-18T13:13:36.246Z,6.68
2023-07-18T13:16:03.062Z,2.65
2023-07-18T13:18:30.665Z,4.45
2023-07-18T13:20:57.432Z,2.83
2023-07-18T13:23:24.107Z,5.28
2023-07-18T13:25:50.846Z,2.40
2023-07-18T13:28:17.585Z,3.20
2023-07-18T13:30:44.300Z,1.95
2023-07-18T13:33:11.241Z,1.80
2023-07-18T13:35:38.158Z,2.00
2023-07-18T13:38:04.879Z,2.55
2023-07-18T13:40:31.643Z,2.70
2023-07-18T13:42:58.504Z,2.40
2023-07-18T13:45:25.789Z,2.85
2023-07-18T13:47:52.672Z,5.53
2023-07-18T13:50:31.324Z,2.22
2023-07-18T13:52:58.650Z,1.50
2023-07-18T13:55:28.964Z,1.88
2023-07-18T13:57:58.773Z,2.70
2023-07-18T14:00:25.537Z,1.67
2023-07-18T14:02:52.517Z,2.15
2023-07-18T14:05:19.400Z,2.58
2023-07-18T14:07:46.162Z,4.03
2023-07-18T14:10:13.204Z,4.55
2023-07-18T14:12:40.885Z,3.42
2023-07-18T14:15:08.812Z,3.72
2023-07-18T14:17:35.739Z,2.15
2023-07-18T14:20:02.608Z,1.98
2023-07-18T14:22:29.517Z,2.67
2023-07-18T14:24:56.515Z,1.55
2023-07-18T14:27:23.317Z,3.00
2023-07-18T14:29:52.791Z,3.08
2023-07-18T14:32:19.596Z,2.20
2023-07-18T14:34:46.417Z,3.60
2023-07-18T14:37:13.141Z,1.95
2023-07-18T14:39:40.461Z,2.55
2023-07-18T14:42:08.389Z,2.30
2023-07-18T14:44:36.532Z,1.52
2023-07-18T14:47:04.126Z,3.53
2023-07-18T14:49:30.903Z,2.75
2023-07-18T14:51:58.078Z,3.05
2023-07-18T14:54:24.953Z,2.10
2023-07-18T14:56:52.425Z,3.22
2023-07-18T14:59:19.273Z,2.92
2023-07-18T15:01:46.707Z,3.00
2023-07-18T15:04:13.635Z,2.08
2023-07-18T15:06:40.607Z,2.08
2023-07-18T15:09:07.401Z,1.13
2023-07-18T15:11:34.217Z,4.93
2023-07-18T15:14:03.170Z,2.80
2023-07-18T15:16:30.427Z,3.15
2023-07-18T15:18:57.346Z,2.88
2023-07-18T15:21:24.100Z,1.67
2023-07-18T15:23:50.860Z,1.92
2023-07-18T15:26:18.065Z,1.70
2023-07-18T15:28:45.156Z,0.70
2023-07-18T15:31:12.613Z,3.63
2023-07-18T15:33:39.564Z,2.63
2023-07-18T15:36:06.553Z,2.65
2023-07-18T15:38:35.578Z,3.05
2023-07-18T15:41:02.644Z,5.78
2023-07-18T15:43:29.386Z,4.03
2023-07-18T15:45:57.117Z,2.28
2023-07-18T15:48:24.001Z,3.55
2023-07-18T15:50:53.474Z,2.22
2023-07-18T15:53:20.437Z,2.40
2023-07-18T15:55:47.327Z,2.47
2023-07-18T15:58:14.189Z,2.72
2023-07-18T16:00:41.505Z,2.22
2023-07-18T16:03:08.321Z,3.47
2023-07-18T16:05:35.102Z,2.13
2023-07-18T16:08:04.485Z,4.10
2023-07-18T16:10:31.209Z,3.53
2023-07-18T16:12:58.038Z,3.47
2023-07-18T16:15:24.906Z,2.78
2023-07-18T16:17:53.142Z,6.32
2023-07-18T16:20:20.049Z,2.08
2023-07-18T16:22:49.272Z,2.92
2023-07-18T16:25:16.041Z,2.33
2023-07-18T16:27:42.887Z,3.70
2023-07-18T16:30:10.215Z,2.17
2023-07-18T16:32:37.111Z,1.27
2023-07-18T16:35:05.135Z,1.38
2023-07-18T16:37:32.003Z,4.90
2023-07-18T16:39:58.719Z,1.85
2023-07-18T16:42:25.532Z,1.92
2023-07-18T16:44:55.180Z,3.70
2023-07-18T16:47:23.155Z,8.15
2023-07-18T16:49:51.155Z,1.17
2023-07-18T16:52:18.029Z,3.33
2023-07-18T16:54:48.426Z,4.60
2023-07-18T16:57:16.662Z,1.33
2023-07-18T16:59:43.619Z,1.40
2023-07-18T17:02:10.495Z,1.80
2023-07-18T17:04:37.408Z,2.03
2023-07-18T17:07:04.344Z,3.25
2023-07-18T17:09:31.181Z,3.15
2023-07-18T17:11:57.969Z,2.50
2023-07-18T17:14:25.075Z,1.77
2023-07-18T17:16:51.988Z,2.45
2023-07-18T17:19:18.881Z,1.58
2023-07-18T17:21:45.625Z,2.88
2023-07-18T17:24:15.783Z,4.25
2023-07-18T17:26:43.521Z,2.55
2023-07-18T17:29:10.315Z,4.13
2023-07-18T17:31:37.154Z,3.25
2023-07-18T17:34:05.449Z,2.72
2023-07-18T17:36:32.308Z,2.80
2023-07-18T17:38:59.114Z,1.63
2023-07-18T17:41:25.951Z,1.67
2023-07-18T17:43:52.758Z,4.50
2023-07-18T17:46:20.483Z,2.40
2023-07-18T17:48:47.419Z,2.17
2023-07-18T17:51:14.155Z,4.20
2023-07-18T17:53:41.015Z,2.72
2023-07-18T17:56:08.228Z,2.65
2023-07-18T17:58:36.336Z,1.80
2023-07-18T18:01:03.461Z,1.75
2023-07-18T18:03:30.391Z,2.67
2023-07-18T18:05:57.276Z,4.85
2023-07-18T18:08:24.064Z,3.95
2023-07-18T18:10:51.494Z,1.60
2023-07-18T18:13:18.491Z,2.83
2023-07-18T18:15:56.303Z,6.82
2023-07-18T18:18:29.838Z,2.17
2023-07-18T18:21:01.395Z,2.03
2023-07-18T18:23:38.423Z,2.38
2023-07-18T18:26:07.300Z,2.80
2023-07-18T18:28:34.318Z,2.30
2023-07-18T18:31:01.377Z,1.25
2023-07-18T18:33:28.640Z,2.63
2023-07-18T18:35:55.715Z,3.58
2023-07-18T18:38:22.703Z,3.35
2023-07-18T18:40:49.493Z,3.67
2023-07-18T18:43:16.368Z,3.17
2023-07-18T18:45:43.752Z,3.03
2023-07-18T18:48:13.583Z,4.07
2023-07-18T18:50:43.030Z,6.88
2023-07-18T18:53:10.073Z,4.65
2023-07-18T18:55:37.063Z,4.47
2023-07-18T18:58:04.097Z,4.45
2023-07-18T19:00:31.014Z,3.58
2023-07-18T19:03:01.022Z,3.85
2023-07-18T19:05:27.870Z,4.43
2023-07-18T19:07:54.705Z,4.22
2023-07-18T19:10:21.735Z,2.78
2023-07-18T19:12:48.492Z,4.05
2023-07-18T19:15:15.461Z,5.13
2023-07-18T19:17:42.417Z,3.10
2023-07-18T19:20:09.776Z,3.38
2023-07-18T19:22:36.530Z,3.13
2023-07-18T19:25:04.765Z,5.97
2023-07-18T19:27:31.644Z,4.75
2023-07-18T19:29:58.583Z,4.78
2023-07-18T19:32:25.585Z,2.40
2023-07-18T19:34:52.298Z,3.27
2023-07-18T19:37:19.054Z,3.30
2023-07-18T19:39:45.825Z,4.17
2023-07-18T19:42:12.605Z,5.30
2023-07-18T19:44:42.201Z,4.40
2023-07-18T19:47:08.997Z,3.97
2023-07-18T19:49:35.872Z,3.73
2023-07-18T19:52:02.677Z,3.73
2023-07-18T19:54:29.571Z,3.90
2023-07-18T19:56:56.355Z,3.03
2023-07-18T19:59:24.478Z,4.87
2023-07-18T20:01:51.402Z,4.20
2023-07-18T20:04:18.643Z,3.17
2023-07-18T20:06:45.538Z,2.10
2023-07-18T20:09:12.450Z,5.23
2023-07-18T20:11:39.475Z,2.63
2023-07-18T20:14:09.257Z,1.70
2023-07-18T20:16:36.027Z,5.77
2023-07-18T20:19:03.266Z,3.33
2023-07-18T20:21:33.668Z,2.47
2023-07-18T20:24:00.442Z,3.47
2023-07-18T20:26:30.468Z,1.37
2023-07-18T20:29:01.105Z,3.07
2023-07-18T20:31:28.148Z,2.63
2023-07-18T20:33:55.107Z,4.47
2023-07-18T20:36:23.661Z,1.83
2023-07-18T20:38:50.372Z,2.70
2023-07-18T20:41:19.963Z,1.90
2023-07-18T20:43:47.054Z,3.60
2023-07-18T20:46:14.833Z,1.90
2023-07-18T20:48:41.631Z,2.90
2023-07-18T20:51:09.040Z,2.13
2023-07-18T20:53:35.794Z,2.63
2023-07-18T20:56:02.676Z,2.17
2023-07-18T20:58:29.686Z,2.93
2023-07-18T21:00:56.392Z,4.97
2023-07-18T21:03:23.322Z,3.47
2023-07-18T21:05:51.467Z,2.40
2023-07-18T21:08:19.233Z,5.23
2023-07-18T21:10:46.497Z,4.00
2023-07-18T21:13:13.565Z,2.67
2023-07-18T21:15:40.908Z,2.27
2023-07-18T21:18:07.961Z,1.90
2023-07-18T21:20:35.106Z,3.27
2023-07-18T21:23:02.701Z,2.03
2023-07-18T21:25:29.864Z,3.50
2023-07-18T21:27:58.429Z,5.77
2023-07-18T21:30:25.606Z,2.40
2023-07-18T21:32:52.459Z,1.70
2023-07-18T21:35:20.215Z,2.80
2023-07-18T21:37:47.019Z,2.37
2023-07-18T21:40:13.767Z,2.70
2023-07-18T21:42:40.508Z,2.67
2023-07-18T21:45:07.534Z,3.60
2023-07-18T21:47:34.609Z,2.40
2023-07-18T21:50:01.412Z,1.70
2023-07-18T21:52:28.331Z,2.87
2023-07-18T21:55:00.928Z,3.37
2023-07-18T21:57:28.045Z,2.47
2023-07-18T21:59:54.834Z,3.27
2023-07-18T22:02:31.953Z,2.30
2023-07-18T22:04:58.868Z,1.57
2023-07-18T22:07:25.728Z,4.93
2023-07-18T22:09:52.489Z,2.20
2023-07-18T22:12:19.226Z,4.43
2023-07-18T22:14:46.186Z,2.80
2023-07-18T22:17:12.996Z,1.80
2023-07-18T22:19:39.970Z,4.33
2023-07-18T22:22:06.857Z,2.83
2023-07-18T22:24:33.646Z,2.30
2023-07-18T22:27:00.526Z,4.03
2023-07-18T22:29:27.867Z,3.83
2023-07-18T22:31:54.786Z,3.23
2023-07-18T22:34:21.749Z,6.43
2023-07-18T22:36:48.728Z,5.43
2023-07-18T22:39:33.218Z,4.97
2023-07-18T22:42:18.931Z,3.83
2023-07-18T22:44:47.896Z,4.23
2023-07-18T22:47:15.283Z,1.30
2023-07-18T22:49:42.927Z,1.90
2023-07-18T22:52:13.406Z,3.60
2023-07-18T22:54:40.688Z,3.27
2023-07-18T22:57:07.698Z,3.37
2023-07-18T22:59:34.814Z,3.33
2023-07-18T23:02:01.507Z,5.70
2023-07-18T23:04:28.994Z,4.17
2023-07-18T23:06:58.405Z,3.20
2023-07-18T23:09:25.212Z,2.37
2023-07-18T23:11:53.809Z,2.67
2023-07-18T23:14:20.767Z,2.90
2023-07-18T23:16:48.039Z,4.00
2023-07-18T23:19:19.772Z,3.37
2023-07-18T23:21:47.139Z,3.93
2023-07-18T23:24:17.377Z,5.50
2023-07-18T23:26:48.567Z,3.70
2023-07-18T23:29:15.325Z,2.63
2023-07-18T23:31:42.111Z,2.67
2023-07-18T23:34:08.949Z,3.50
2023-07-18T23:36:36.048Z,3.87
2023-07-18T23:39:03.029Z,3.70
2023-07-18T23:41:29.883Z,4.87
2023-07-18T23:43:56.710Z,1.80
2023-07-18T23:46:23.593Z,3.93
2023-07-18T23:48:53.369Z,2.23
2023-07-18T23:51:21.334Z,3.50
2023-07-18T23:53:48.426Z,2.50
2023-07-18T23:56:15.180Z,4.07
2023-07-18T23:58:42.077Z,2.80
